sensor_id;sensor_type;location;lat;lon;timestamp;temperature;humidity
13606;DHT22;6874;52.084;5.090;2023-03-26T00:00:40;8.90;99.90
13606;DHT22;6874;52.084;5.090;2023-03-26T00:03:08;8.90;99.90
13606;DHT22;6874;52.084;5.090;2023-03-26T00:05:36;8.80;99.90
13606;DHT22;6874;52.084;5.090;2023-03-26T00:08:02;8.80;99.90
13606;DHT22;6874;52.084;5.090;2023-03-26T00:10:27;8.90;99.90
13606;DHT22;6874;52.084;5.090;2023-03-26T00:12:53;8.90;99.90
13606;DHT22;6874;52.084;5.090;2023-03-26T00:15:18;8.80;99.90
13606;DHT22;6874;52.084;5.090;2023-03-26T00:17:44;8.80;99.90
13606;DHT22;6874;52.084;5.090;2023-03-26T00:20:13;8.80;99.90
13606;DHT22;6874;52.084;5.090;2023-03-26T00:22:39;8.80;99.90
13606;DHT22;6874;52.084;5.090;2023-03-26T00:25:06;8.80;99.90
13606;DHT22;6874;52.084;5.090;2023-03-26T00:27:32;8.80;99.90
13606;DHT22;6874;52.084;5.090;2023-03-26T00:29:59;8.80;99.90
13606;DHT22;6874;52.084;5.090;2023-03-26T00:32:26;8.80;99.90
13606;DHT22;6874;52.084;5.090;2023-03-26T00:34:56;8.80;99.90
13606;DHT22;6874;52.084;5.090;2023-03-26T00:37:22;8.80;99.90
13606;DHT22;6874;52.084;5.090;2023-03-26T00:39:55;8.80;99.90
13606;DHT22;6874;52.084;5.090;2023-03-26T00:42:29;8.80;99.90
13606;DHT22;6874;52.084;5.090;2023-03-26T00:44:56;8.80;99.90
13606;DHT22;6874;52.084;5.090;2023-03-26T00:47:26;8.70;99.90
13606;DHT22;6874;52.084;5.090;2023-03-26T00:49:52;8.70;99.90
13606;DHT22;6874;52.084;5.090;2023-03-26T00:52:18;8.70;99.90
13606;DHT22;6874;52.084;5.090;2023-03-26T00:54:45;8.70;99.90
13606;DHT22;6874;52.084;5.090;2023-03-26T00:57:12;8.70;99.90
13606;DHT22;6874;52.084;5.090;2023-03-26T00:59:38;8.70;99.90
13606;DHT22;6874;52.084;5.090;2023-03-26T01:02:04;8.70;99.90
13606;DHT22;6874;52.084;5.090;2023-03-26T01:04:31;8.70;99.90
13606;DHT22;6874;52.084;5.090;2023-03-26T01:07:08;8.70;99.90
13606;DHT22;6874;52.084;5.090;2023-03-26T01:09:38;8.70;99.90
13606;DHT22;6874;52.084;5.090;2023-03-26T01:12:10;8.70;99.90
13606;DHT22;6874;52.084;5.090;2023-03-26T01:14:38;8.70;99.90
13606;DHT22;6874;52.084;5.090;2023-03-26T01:17:05;8.70;99.90
13606;DHT22;6874;52.084;5.090;2023-03-26T01:22:15;8.70;99.90
13606;DHT22;6874;52.084;5.090;2023-03-26T01:24:41;8.70;99.90
13606;DHT22;6874;52.084;5.090;2023-03-26T01:27:16;8.70;99.90
13606;DHT22;6874;52.084;5.090;2023-03-26T01:32:53;8.60;99.90
13606;DHT22;6874;52.084;5.090;2023-03-26T01:36:10;8.60;99.90
13606;DHT22;6874;52.084;5.090;2023-03-26T01:38:39;8.70;99.90
13606;DHT22;6874;52.084;5.090;2023-03-26T01:41:29;8.70;99.90
13606;DHT22;6874;52.084;5.090;2023-03-26T01:44:26;8.60;99.90
13606;DHT22;6874;52.084;5.090;2023-03-26T01:46:54;8.60;99.90
13606;DHT22;6874;52.084;5.090;2023-03-26T01:49:20;8.70;99.90
13606;DHT22;6874;52.084;5.090;2023-03-26T01:51:45;8.60;99.90
13606;DHT22;6874;52.084;5.090;2023-03-26T01:54:18;8.60;99.90
13606;DHT22;6874;52.084;5.090;2023-03-26T01:59:46;8.60;99.90
13606;DHT22;6874;52.084;5.090;2023-03-26T02:07:37;8.60;99.90
13606;DHT22;6874;52.084;5.090;2023-03-26T02:10:09;8.60;99.90
13606;DHT22;6874;52.084;5.090;2023-03-26T02:12:37;8.70;99.90
13606;DHT22;6874;52.084;5.090;2023-03-26T02:15:04;8.60;99.90
13606;DHT22;6874;52.084;5.090;2023-03-26T02:17:30;8.70;99.90
13606;DHT22;6874;52.084;5.090;2023-03-26T02:19:57;8.60;99.90
13606;DHT22;6874;52.084;5.090;2023-03-26T02:22:22;8.60;99.90
13606;DHT22;6874;52.084;5.090;2023-03-26T02:24:54;8.70;99.90
13606;DHT22;6874;52.084;5.090;2023-03-26T02:27:20;8.70;99.90
13606;DHT22;6874;52.084;5.090;2023-03-26T02:29:45;8.70;99.90
13606;DHT22;6874;52.084;5.090;2023-03-26T02:32:12;8.60;99.90
13606;DHT22;6874;52.084;5.090;2023-03-26T02:34:39;8.70;99.90
13606;DHT22;6874;52.084;5.090;2023-03-26T02:37:05;8.70;99.90
13606;DHT22;6874;52.084;5.090;2023-03-26T02:39:31;8.70;99.90
13606;DHT22;6874;52.084;5.090;2023-03-26T02:41:56;8.70;99.90
13606;DHT22;6874;52.084;5.090;2023-03-26T02:44:22;8.70;99.90
13606;DHT22;6874;52.084;5.090;2023-03-26T02:46:47;8.70;99.90
13606;DHT22;6874;52.084;5.090;2023-03-26T02:49:13;8.70;99.90
13606;DHT22;6874;52.084;5.090;2023-03-26T02:51:39;8.70;99.90
13606;DHT22;6874;52.084;5.090;2023-03-26T02:54:04;8.70;99.90
13606;DHT22;6874;52.084;5.090;2023-03-26T02:56:31;8.70;99.90
13606;DHT22;6874;52.084;5.090;2023-03-26T02:58:57;8.70;99.90
13606;DHT22;6874;52.084;5.090;2023-03-26T03:01:23;8.70;99.90
13606;DHT22;6874;52.084;5.090;2023-03-26T03:03:48;8.70;99.90
13606;DHT22;6874;52.084;5.090;2023-03-26T03:06:15;8.70;99.90
13606;DHT22;6874;52.084;5.090;2023-03-26T03:08:43;8.70;99.90
13606;DHT22;6874;52.084;5.090;2023-03-26T03:11:13;8.70;99.90
13606;DHT22;6874;52.084;5.090;2023-03-26T03:13:39;8.70;99.90
13606;DHT22;6874;52.084;5.090;2023-03-26T03:16:05;8.70;99.90
13606;DHT22;6874;52.084;5.090;2023-03-26T03:18:31;8.70;99.90
13606;DHT22;6874;52.084;5.090;2023-03-26T03:20:56;8.70;99.90
13606;DHT22;6874;52.084;5.090;2023-03-26T03:23:22;8.70;99.90
13606;DHT22;6874;52.084;5.090;2023-03-26T03:25:47;8.70;99.90
13606;DHT22;6874;52.084;5.090;2023-03-26T03:28:15;8.70;99.90
13606;DHT22;6874;52.084;5.090;2023-03-26T03:30:42;8.70;99.90
13606;DHT22;6874;52.084;5.090;2023-03-26T03:33:09;8.70;99.90
13606;DHT22;6874;52.084;5.090;2023-03-26T03:35:34;8.80;99.90
13606;DHT22;6874;52.084;5.090;2023-03-26T03:38:00;8.70;99.90
13606;DHT22;6874;52.084;5.090;2023-03-26T03:40:26;8.70;99.90
13606;DHT22;6874;52.084;5.090;2023-03-26T03:42:51;8.70;99.90
13606;DHT22;6874;52.084;5.090;2023-03-26T03:45:17;8.70;99.90
13606;DHT22;6874;52.084;5.090;2023-03-26T03:47:43;8.70;99.90
13606;DHT22;6874;52.084;5.090;2023-03-26T03:50:09;8.70;99.90
13606;DHT22;6874;52.084;5.090;2023-03-26T03:52:35;8.70;99.90
13606;DHT22;6874;52.084;5.090;2023-03-26T03:55:01;8.70;99.90
13606;DHT22;6874;52.084;5.090;2023-03-26T03:57:27;8.70;99.90
13606;DHT22;6874;52.084;5.090;2023-03-26T03:59:53;8.70;99.90
13606;DHT22;6874;52.084;5.090;2023-03-26T04:02:23;8.70;99.90
13606;DHT22;6874;52.084;5.090;2023-03-26T04:04:55;8.70;99.90
13606;DHT22;6874;52.084;5.090;2023-03-26T04:07:25;8.70;99.90
13606;DHT22;6874;52.084;5.090;2023-03-26T04:09:51;8.70;99.90
13606;DHT22;6874;52.084;5.090;2023-03-26T04:12:16;8.70;99.90
13606;DHT22;6874;52.084;5.090;2023-03-26T04:14:42;8.70;99.90
13606;DHT22;6874;52.084;5.090;2023-03-26T04:17:08;8.70;99.90
13606;DHT22;6874;52.084;5.090;2023-03-26T04:19:34;8.70;99.90
13606;DHT22;6874;52.084;5.090;2023-03-26T04:21:59;8.70;99.90
13606;DHT22;6874;52.084;5.090;2023-03-26T04:24:31;8.70;99.90
13606;DHT22;6874;52.084;5.090;2023-03-26T04:27:03;8.70;99.90
13606;DHT22;6874;52.084;5.090;2023-03-26T04:29:36;8.70;99.90
13606;DHT22;6874;52.084;5.090;2023-03-26T04:32:09;8.70;99.90
13606;DHT22;6874;52.084;5.090;2023-03-26T04:34:37;8.70;99.90
13606;DHT22;6874;52.084;5.090;2023-03-26T04:37:02;8.70;99.90
13606;DHT22;6874;52.084;5.090;2023-03-26T04:39:29;8.70;99.90
13606;DHT22;6874;52.084;5.090;2023-03-26T04:41:55;8.70;99.90
13606;DHT22;6874;52.084;5.090;2023-03-26T04:44:22;8.70;99.90
13606;DHT22;6874;52.084;5.090;2023-03-26T04:46:48;8.80;99.90
13606;DHT22;6874;52.084;5.090;2023-03-26T04:49:14;8.70;99.90
13606;DHT22;6874;52.084;5.090;2023-03-26T04:51:41;8.70;99.90
13606;DHT22;6874;52.084;5.090;2023-03-26T04:54:07;8.70;99.90
13606;DHT22;6874;52.084;5.090;2023-03-26T04:56:53;8.70;99.90
13606;DHT22;6874;52.084;5.090;2023-03-26T04:59:23;8.70;99.90
13606;DHT22;6874;52.084;5.090;2023-03-26T05:01:53;8.70;99.90
13606;DHT22;6874;52.084;5.090;2023-03-26T05:04:19;8.70;99.90
13606;DHT22;6874;52.084;5.090;2023-03-26T05:06:45;8.70;99.90
13606;DHT22;6874;52.084;5.090;2023-03-26T05:09:10;8.70;99.90
13606;DHT22;6874;52.084;5.090;2023-03-26T05:11:36;8.70;99.90
13606;DHT22;6874;52.084;5.090;2023-03-26T05:14:02;8.70;99.90
13606;DHT22;6874;52.084;5.090;2023-03-26T05:16:28;8.70;99.90
13606;DHT22;6874;52.084;5.090;2023-03-26T05:18:54;8.70;99.90
13606;DHT22;6874;52.084;5.090;2023-03-26T05:21:20;8.70;99.90
13606;DHT22;6874;52.084;5.090;2023-03-26T05:23:46;8.70;99.90
13606;DHT22;6874;52.084;5.090;2023-03-26T05:26:12;8.70;99.90
13606;DHT22;6874;52.084;5.090;2023-03-26T05:28:38;8.70;99.90
13606;DHT22;6874;52.084;5.090;2023-03-26T05:31:03;8.60;99.90
13606;DHT22;6874;52.084;5.090;2023-03-26T05:33:29;8.70;99.90
13606;DHT22;6874;52.084;5.090;2023-03-26T05:36:21;8.60;99.90
13606;DHT22;6874;52.084;5.090;2023-03-26T05:38:47;8.70;99.90
13606;DHT22;6874;52.084;5.090;2023-03-26T05:41:15;8.60;99.90
13606;DHT22;6874;52.084;5.090;2023-03-26T05:43:41;8.60;99.90
13606;DHT22;6874;52.084;5.090;2023-03-26T05:46:09;8.60;99.90
13606;DHT22;6874;52.084;5.090;2023-03-26T05:48:35;8.60;99.90
13606;DHT22;6874;52.084;5.090;2023-03-26T05:51:02;8.60;99.90
13606;DHT22;6874;52.084;5.090;2023-03-26T05:53:28;8.60;99.90
13606;DHT22;6874;52.084;5.090;2023-03-26T05:55:54;8.60;99.90
13606;DHT22;6874;52.084;5.090;2023-03-26T05:58:28;8.60;99.90
13606;DHT22;6874;52.084;5.090;2023-03-26T06:01:01;8.60;99.90
13606;DHT22;6874;52.084;5.090;2023-03-26T06:03:31;8.60;99.90
13606;DHT22;6874;52.084;5.090;2023-03-26T06:05:57;8.60;99.90
13606;DHT22;6874;52.084;5.090;2023-03-26T06:08:23;8.70;99.90
13606;DHT22;6874;52.084;5.090;2023-03-26T06:10:48;8.60;99.90
13606;DHT22;6874;52.084;5.090;2023-03-26T06:13:16;8.60;99.90
13606;DHT22;6874;52.084;5.090;2023-03-26T06:15:42;8.60;99.90
13606;DHT22;6874;52.084;5.090;2023-03-26T06:18:08;8.60;99.90
13606;DHT22;6874;52.084;5.090;2023-03-26T06:20:34;8.60;99.90
13606;DHT22;6874;52.084;5.090;2023-03-26T06:22:59;8.60;99.90
13606;DHT22;6874;52.084;5.090;2023-03-26T06:25:25;8.60;99.90
13606;DHT22;6874;52.084;5.090;2023-03-26T06:27:51;8.60;99.90
13606;DHT22;6874;52.084;5.090;2023-03-26T06:30:16;8.60;99.90
13606;DHT22;6874;52.084;5.090;2023-03-26T06:32:42;8.60;99.90
13606;DHT22;6874;52.084;5.090;2023-03-26T06:35:07;8.60;99.90
13606;DHT22;6874;52.084;5.090;2023-03-26T06:37:33;8.60;99.90
13606;DHT22;6874;52.084;5.090;2023-03-26T06:39:59;8.50;99.90
13606;DHT22;6874;52.084;5.090;2023-03-26T06:42:24;8.60;99.90
13606;DHT22;6874;52.084;5.090;2023-03-26T06:44:50;8.60;99.90
13606;DHT22;6874;52.084;5.090;2023-03-26T06:47:16;8.60;99.90
13606;DHT22;6874;52.084;5.090;2023-03-26T06:49:41;8.60;99.90
13606;DHT22;6874;52.084;5.090;2023-03-26T06:52:07;8.60;99.90
13606;DHT22;6874;52.084;5.090;2023-03-26T06:54:32;8.60;99.90
13606;DHT22;6874;52.084;5.090;2023-03-26T06:56:58;8.60;99.90
13606;DHT22;6874;52.084;5.090;2023-03-26T06:59:24;8.60;99.90
13606;DHT22;6874;52.084;5.090;2023-03-26T07:01:50;8.60;99.90
13606;DHT22;6874;52.084;5.090;2023-03-26T07:04:16;8.60;99.90
13606;DHT22;6874;52.084;5.090;2023-03-26T07:06:41;8.60;99.90
13606;DHT22;6874;52.084;5.090;2023-03-26T07:09:07;8.60;99.90
13606;DHT22;6874;52.084;5.090;2023-03-26T07:11:33;8.60;99.90
13606;DHT22;6874;52.084;5.090;2023-03-26T07:14:00;8.60;99.90
13606;DHT22;6874;52.084;5.090;2023-03-26T07:16:25;8.60;99.90
13606;DHT22;6874;52.084;5.090;2023-03-26T07:18:51;8.60;99.90
13606;DHT22;6874;52.084;5.090;2023-03-26T07:21:18;8.60;99.90
13606;DHT22;6874;52.084;5.090;2023-03-26T07:23:46;8.60;99.90
13606;DHT22;6874;52.084;5.090;2023-03-26T07:26:25;8.70;99.90
13606;DHT22;6874;52.084;5.090;2023-03-26T07:29:34;8.70;99.90
13606;DHT22;6874;52.084;5.090;2023-03-26T07:32:18;8.60;99.90
13606;DHT22;6874;52.084;5.090;2023-03-26T07:34:54;8.60;99.90
13606;DHT22;6874;52.084;5.090;2023-03-26T07:42:49;8.70;99.90
13606;DHT22;6874;52.084;5.090;2023-03-26T07:45:25;8.70;99.90
13606;DHT22;6874;52.084;5.090;2023-03-26T07:47:54;8.70;99.90
13606;DHT22;6874;52.084;5.090;2023-03-26T07:50:23;8.70;99.90
13606;DHT22;6874;52.084;5.090;2023-03-26T07:52:49;8.70;99.90
13606;DHT22;6874;52.084;5.090;2023-03-26T07:55:15;8.70;99.90
13606;DHT22;6874;52.084;5.090;2023-03-26T08:00:31;8.70;99.90
13606;DHT22;6874;52.084;5.090;2023-03-26T08:03:26;8.70;99.90
13606;DHT22;6874;52.084;5.090;2023-03-26T08:11:42;8.70;99.90
13606;DHT22;6874;52.084;5.090;2023-03-26T08:17:13;8.80;99.90
13606;DHT22;6874;52.084;5.090;2023-03-26T08:19:52;8.80;99.90
13606;DHT22;6874;52.084;5.090;2023-03-26T08:22:35;8.80;99.90
13606;DHT22;6874;52.084;5.090;2023-03-26T08:27:56;8.80;99.90
13606;DHT22;6874;52.084;5.090;2023-03-26T08:30:26;8.80;99.90
13606;DHT22;6874;52.084;5.090;2023-03-26T08:33:03;8.80;99.90
13606;DHT22;6874;52.084;5.090;2023-03-26T08:35:35;8.80;99.90
13606;DHT22;6874;52.084;5.090;2023-03-26T08:38:13;8.80;99.90
13606;DHT22;6874;52.084;5.090;2023-03-26T08:46:18;8.80;99.90
13606;DHT22;6874;52.084;5.090;2023-03-26T08:49:02;8.80;99.90
13606;DHT22;6874;52.084;5.090;2023-03-26T09:10:50;8.90;99.90
13606;DHT22;6874;52.084;5.090;2023-03-26T09:27:49;8.90;99.90
13606;DHT22;6874;52.084;5.090;2023-03-26T09:34:50;8.90;99.90
13606;DHT22;6874;52.084;5.090;2023-03-26T09:36:53;8.90;99.90
13606;DHT22;6874;52.084;5.090;2023-03-26T09:42:16;8.90;99.90
13606;DHT22;6874;52.084;5.090;2023-03-26T09:44:57;8.90;99.90
13606;DHT22;6874;52.084;5.090;2023-03-26T09:47:42;8.90;99.90
13606;DHT22;6874;52.084;5.090;2023-03-26T09:55:44;8.90;99.90
13606;DHT22;6874;52.084;5.090;2023-03-26T10:01:29;8.80;99.90
13606;DHT22;6874;52.084;5.090;2023-03-26T10:04:31;8.90;99.90
13606;DHT22;6874;52.084;5.090;2023-03-26T10:07:26;8.80;99.90
13606;DHT22;6874;52.084;5.090;2023-03-26T10:10:06;8.80;99.90
13606;DHT22;6874;52.084;5.090;2023-03-26T10:12:41;8.80;99.90
13606;DHT22;6874;52.084;5.090;2023-03-26T10:15:38;8.80;99.90
13606;DHT22;6874;52.084;5.090;2023-03-26T10:21:38;8.90;99.90
13606;DHT22;6874;52.084;5.090;2023-03-26T10:24:13;8.80;99.90
13606;DHT22;6874;52.084;5.090;2023-03-26T10:27:02;8.90;99.90
13606;DHT22;6874;52.084;5.090;2023-03-26T10:29:57;8.80;99.90
13606;DHT22;6874;52.084;5.090;2023-03-26T10:38:23;8.90;99.90
13606;DHT22;6874;52.084;5.090;2023-03-26T10:43:55;8.90;99.90
13606;DHT22;6874;52.084;5.090;2023-03-26T10:49:23;8.90;99.90
13606;DHT22;6874;52.084;5.090;2023-03-26T10:51:58;8.90;99.90
13606;DHT22;6874;52.084;5.090;2023-03-26T10:54:41;8.90;99.90
13606;DHT22;6874;52.084;5.090;2023-03-26T10:57:45;8.90;99.90
13606;DHT22;6874;52.084;5.090;2023-03-26T11:00:25;8.90;99.90
13606;DHT22;6874;52.084;5.090;2023-03-26T11:05:53;8.90;99.90
13606;DHT22;6874;52.084;5.090;2023-03-26T11:11:36;8.90;99.90
13606;DHT22;6874;52.084;5.090;2023-03-26T11:14:10;8.90;99.90
13606;DHT22;6874;52.084;5.090;2023-03-26T11:16:48;8.90;99.90
13606;DHT22;6874;52.084;5.090;2023-03-26T11:19:37;8.90;99.90
13606;DHT22;6874;52.084;5.090;2023-03-26T11:22:16;9.00;99.90
13606;DHT22;6874;52.084;5.090;2023-03-26T11:30:33;9.10;99.90
13606;DHT22;6874;52.084;5.090;2023-03-26T11:33:05;9.10;99.90
13606;DHT22;6874;52.084;5.090;2023-03-26T11:35:33;9.10;99.90
13606;DHT22;6874;52.084;5.090;2023-03-26T11:38:28;9.10;99.90
13606;DHT22;6874;52.084;5.090;2023-03-26T11:40:58;9.10;99.90
13606;DHT22;6874;52.084;5.090;2023-03-26T11:43:30;9.10;99.90
13606;DHT22;6874;52.084;5.090;2023-03-26T11:45:58;9.10;99.90
13606;DHT22;6874;52.084;5.090;2023-03-26T11:51:00;9.10;99.90
13606;DHT22;6874;52.084;5.090;2023-03-26T11:53:30;9.10;99.90
13606;DHT22;6874;52.084;5.090;2023-03-26T11:56:12;9.10;99.90
13606;DHT22;6874;52.084;5.090;2023-03-26T12:01:17;9.20;99.90
13606;DHT22;6874;52.084;5.090;2023-03-26T12:04:05;9.10;99.90
13606;DHT22;6874;52.084;5.090;2023-03-26T12:06:33;9.10;99.90
13606;DHT22;6874;52.084;5.090;2023-03-26T12:08:59;9.10;99.90
13606;DHT22;6874;52.084;5.090;2023-03-26T12:11:27;9.10;99.90
13606;DHT22;6874;52.084;5.090;2023-03-26T12:14:00;9.20;99.90
13606;DHT22;6874;52.084;5.090;2023-03-26T12:16:26;9.20;99.90
13606;DHT22;6874;52.084;5.090;2023-03-26T12:19:16;9.20;99.90
13606;DHT22;6874;52.084;5.090;2023-03-26T12:21:50;9.20;99.90
13606;DHT22;6874;52.084;5.090;2023-03-26T12:24:45;9.20;99.90
13606;DHT22;6874;52.084;5.090;2023-03-26T12:27:25;9.20;99.90
13606;DHT22;6874;52.084;5.090;2023-03-26T12:30:23;9.20;99.90
13606;DHT22;6874;52.084;5.090;2023-03-26T12:32:51;9.30;99.90
13606;DHT22;6874;52.084;5.090;2023-03-26T12:35:21;9.30;99.90
13606;DHT22;6874;52.084;5.090;2023-03-26T12:37:52;9.30;99.90
13606;DHT22;6874;52.084;5.090;2023-03-26T12:42:54;9.30;99.90
13606;DHT22;6874;52.084;5.090;2023-03-26T12:45:22;9.40;99.90
13606;DHT22;6874;52.084;5.090;2023-03-26T12:47:49;9.40;99.90
13606;DHT22;6874;52.084;5.090;2023-03-26T12:50:16;9.40;99.90
13606;DHT22;6874;52.084;5.090;2023-03-26T12:55:38;9.40;99.90
13606;DHT22;6874;52.084;5.090;2023-03-26T13:01:25;9.50;99.90
13606;DHT22;6874;52.084;5.090;2023-03-26T13:04:16;9.50;99.90
13606;DHT22;6874;52.084;5.090;2023-03-26T13:06:56;9.50;99.90
13606;DHT22;6874;52.084;5.090;2023-03-26T13:26:09;9.60;99.90
13606;DHT22;6874;52.084;5.090;2023-03-26T13:28:48;9.60;99.90
13606;DHT22;6874;52.084;5.090;2023-03-26T13:31:28;9.70;99.90
13606;DHT22;6874;52.084;5.090;2023-03-26T13:34:27;9.70;99.90
13606;DHT22;6874;52.084;5.090;2023-03-26T13:40:15;9.70;99.90
13606;DHT22;6874;52.084;5.090;2023-03-26T13:45:41;9.70;99.90
13606;DHT22;6874;52.084;5.090;2023-03-26T13:48:16;9.80;99.90
13606;DHT22;6874;52.084;5.090;2023-03-26T13:50:50;9.70;99.90
13606;DHT22;6874;52.084;5.090;2023-03-26T13:53:24;9.80;99.90
13606;DHT22;6874;52.084;5.090;2023-03-26T13:55:56;9.80;99.90
13606;DHT22;6874;52.084;5.090;2023-03-26T13:58:48;9.80;99.90
13606;DHT22;6874;52.084;5.090;2023-03-26T14:01:18;9.80;99.90
13606;DHT22;6874;52.084;5.090;2023-03-26T14:04:05;9.90;99.90
13606;DHT22;6874;52.084;5.090;2023-03-26T14:06:45;9.90;99.90
13606;DHT22;6874;52.084;5.090;2023-03-26T14:11:57;9.90;99.90
13606;DHT22;6874;52.084;5.090;2023-03-26T14:14:36;9.90;99.90
13606;DHT22;6874;52.084;5.090;2023-03-26T14:25:54;10.00;99.90
13606;DHT22;6874;52.084;5.090;2023-03-26T14:28:52;10.00;99.90
13606;DHT22;6874;52.084;5.090;2023-03-26T14:31:29;10.00;99.90
13606;DHT22;6874;52.084;5.090;2023-03-26T14:42:57;10.00;99.90
13606;DHT22;6874;52.084;5.090;2023-03-26T14:45:43;10.00;99.90
13606;DHT22;6874;52.084;5.090;2023-03-26T14:53:51;10.00;99.90
13606;DHT22;6874;52.084;5.090;2023-03-26T15:04:40;10.10;99.90
13606;DHT22;6874;52.084;5.090;2023-03-26T15:29:57;10.00;99.90
13606;DHT22;6874;52.084;5.090;2023-03-26T15:35:34;9.90;99.90
13606;DHT22;6874;52.084;5.090;2023-03-26T15:40:47;9.80;99.90
13606;DHT22;6874;52.084;5.090;2023-03-26T15:43:15;9.80;99.90
13606;DHT22;6874;52.084;5.090;2023-03-26T15:45:45;9.80;99.90
13606;DHT22;6874;52.084;5.090;2023-03-26T15:48:19;9.80;99.90
13606;DHT22;6874;52.084;5.090;2023-03-26T16:01:30;9.60;99.90
13606;DHT22;6874;52.084;5.090;2023-03-26T16:04:21;9.60;99.90
13606;DHT22;6874;52.084;5.090;2023-03-26T16:07:07;9.60;99.90
13606;DHT22;6874;52.084;5.090;2023-03-26T16:10:12;9.60;99.90
13606;DHT22;6874;52.084;5.090;2023-03-26T16:15:29;9.50;99.90
13606;DHT22;6874;52.084;5.090;2023-03-26T16:20:45;9.40;99.90
13606;DHT22;6874;52.084;5.090;2023-03-26T16:23:35;9.40;99.90
13606;DHT22;6874;52.084;5.090;2023-03-26T16:26:22;9.30;99.90
13606;DHT22;6874;52.084;5.090;2023-03-26T16:33:43;9.30;99.90
13606;DHT22;6874;52.084;5.090;2023-03-26T16:36:30;9.20;99.90
13606;DHT22;6874;52.084;5.090;2023-03-26T16:41:28;9.20;99.90
13606;DHT22;6874;52.084;5.090;2023-03-26T16:49:25;9.10;99.90
13606;DHT22;6874;52.084;5.090;2023-03-26T17:06:21;9.00;99.90
13606;DHT22;6874;52.084;5.090;2023-03-26T17:17:17;8.90;99.90
13606;DHT22;6874;52.084;5.090;2023-03-26T17:20:00;8.90;99.90
13606;DHT22;6874;52.084;5.090;2023-03-26T17:22:44;8.80;99.90
13606;DHT22;6874;52.084;5.090;2023-03-26T17:25:36;8.80;99.90
13606;DHT22;6874;52.084;5.090;2023-03-26T17:28:26;8.80;99.90
13606;DHT22;6874;52.084;5.090;2023-03-26T17:31:04;8.70;99.90
13606;DHT22;6874;52.084;5.090;2023-03-26T17:33:33;8.70;99.90
13606;DHT22;6874;52.084;5.090;2023-03-26T17:41:09;8.70;99.90
13606;DHT22;6874;52.084;5.090;2023-03-26T17:43:45;8.60;99.90
13606;DHT22;6874;52.084;5.090;2023-03-26T17:46:40;8.60;99.90
13606;DHT22;6874;52.084;5.090;2023-03-26T17:49:23;8.60;99.90
13606;DHT22;6874;52.084;5.090;2023-03-26T17:54:44;8.50;99.90
13606;DHT22;6874;52.084;5.090;2023-03-26T17:57:21;8.50;99.90
13606;DHT22;6874;52.084;5.090;2023-03-26T17:59:50;8.50;99.90
13606;DHT22;6874;52.084;5.090;2023-03-26T18:02:19;8.40;99.90
13606;DHT22;6874;52.084;5.090;2023-03-26T18:04:48;8.40;99.90
13606;DHT22;6874;52.084;5.090;2023-03-26T18:18:44;8.20;99.90
13606;DHT22;6874;52.084;5.090;2023-03-26T18:21:35;8.20;99.90
13606;DHT22;6874;52.084;5.090;2023-03-26T18:24:04;8.20;99.90
13606;DHT22;6874;52.084;5.090;2023-03-26T18:26:39;8.10;99.90
13606;DHT22;6874;52.084;5.090;2023-03-26T18:29:29;8.10;99.90
13606;DHT22;6874;52.084;5.090;2023-03-26T18:32:00;8.00;99.90
13606;DHT22;6874;52.084;5.090;2023-03-26T18:34:30;8.00;99.90
13606;DHT22;6874;52.084;5.090;2023-03-26T18:37:10;8.00;99.90
13606;DHT22;6874;52.084;5.090;2023-03-26T18:42:38;8.00;99.90
13606;DHT22;6874;52.084;5.090;2023-03-26T18:45:50;8.00;99.90
13606;DHT22;6874;52.084;5.090;2023-03-26T18:48:01;7.90;99.90
13606;DHT22;6874;52.084;5.090;2023-03-26T18:50:32;7.90;99.90
13606;DHT22;6874;52.084;5.090;2023-03-26T18:53:04;7.90;99.90
13606;DHT22;6874;52.084;5.090;2023-03-26T18:55:33;7.90;99.90
13606;DHT22;6874;52.084;5.090;2023-03-26T18:58:30;7.90;99.90
13606;DHT22;6874;52.084;5.090;2023-03-26T19:01:05;7.80;99.90
13606;DHT22;6874;52.084;5.090;2023-03-26T19:03:37;7.80;99.90
13606;DHT22;6874;52.084;5.090;2023-03-26T19:06:06;7.80;99.90
13606;DHT22;6874;52.084;5.090;2023-03-26T19:08:35;7.90;99.90
13606;DHT22;6874;52.084;5.090;2023-03-26T19:11:06;7.80;99.90
13606;DHT22;6874;52.084;5.090;2023-03-26T19:13:34;7.80;99.90
13606;DHT22;6874;52.084;5.090;2023-03-26T19:16:11;7.80;99.90
13606;DHT22;6874;52.084;5.090;2023-03-26T19:18:40;7.80;99.90
13606;DHT22;6874;52.084;5.090;2023-03-26T19:21:06;7.70;99.90
13606;DHT22;6874;52.084;5.090;2023-03-26T19:23:35;7.70;99.90
13606;DHT22;6874;52.084;5.090;2023-03-26T19:26:04;7.70;99.90
13606;DHT22;6874;52.084;5.090;2023-03-26T19:28:34;7.70;99.90
13606;DHT22;6874;52.084;5.090;2023-03-26T19:31:37;7.60;99.90
13606;DHT22;6874;52.084;5.090;2023-03-26T19:34:34;7.60;99.90
13606;DHT22;6874;52.084;5.090;2023-03-26T19:39:48;7.50;99.90
13606;DHT22;6874;52.084;5.090;2023-03-26T19:42:22;7.50;99.90
13606;DHT22;6874;52.084;5.090;2023-03-26T19:44:49;7.50;99.90
13606;DHT22;6874;52.084;5.090;2023-03-26T19:47:42;7.50;99.90
13606;DHT22;6874;52.084;5.090;2023-03-26T19:55:52;7.40;99.90
13606;DHT22;6874;52.084;5.090;2023-03-26T19:58:18;7.40;99.90
13606;DHT22;6874;52.084;5.090;2023-03-26T20:00:44;7.40;99.90
13606;DHT22;6874;52.084;5.090;2023-03-26T20:03:10;7.40;99.90
13606;DHT22;6874;52.084;5.090;2023-03-26T20:05:35;7.30;99.90
13606;DHT22;6874;52.084;5.090;2023-03-26T20:08:13;7.30;99.90
13606;DHT22;6874;52.084;5.090;2023-03-26T20:10:39;7.30;99.90
13606;DHT22;6874;52.084;5.090;2023-03-26T20:13:14;7.30;99.90
13606;DHT22;6874;52.084;5.090;2023-03-26T20:15:42;7.30;99.90
13606;DHT22;6874;52.084;5.090;2023-03-26T20:18:09;7.30;99.90
13606;DHT22;6874;52.084;5.090;2023-03-26T20:20:38;7.20;99.90
13606;DHT22;6874;52.084;5.090;2023-03-26T20:23:11;7.20;99.90
13606;DHT22;6874;52.084;5.090;2023-03-26T20:25:49;7.20;99.90
13606;DHT22;6874;52.084;5.090;2023-03-26T20:28:17;7.20;99.90
13606;DHT22;6874;52.084;5.090;2023-03-26T20:30:46;7.10;99.90
13606;DHT22;6874;52.084;5.090;2023-03-26T20:33:18;7.10;99.90
13606;DHT22;6874;52.084;5.090;2023-03-26T20:35:44;7.10;99.90
13606;DHT22;6874;52.084;5.090;2023-03-26T20:38:10;7.10;99.90
13606;DHT22;6874;52.084;5.090;2023-03-26T20:40:37;7.10;99.90
13606;DHT22;6874;52.084;5.090;2023-03-26T20:43:02;7.10;99.90
13606;DHT22;6874;52.084;5.090;2023-03-26T20:45:28;7.10;99.90
13606;DHT22;6874;52.084;5.090;2023-03-26T20:47:54;7.00;99.90
13606;DHT22;6874;52.084;5.090;2023-03-26T20:50:21;7.00;99.90
13606;DHT22;6874;52.084;5.090;2023-03-26T20:52:50;7.10;99.90
13606;DHT22;6874;52.084;5.090;2023-03-26T20:55:19;7.00;99.90
13606;DHT22;6874;52.084;5.090;2023-03-26T20:57:48;7.00;99.90
13606;DHT22;6874;52.084;5.090;2023-03-26T21:00:15;7.00;99.90
13606;DHT22;6874;52.084;5.090;2023-03-26T21:02:55;7.00;99.90
13606;DHT22;6874;52.084;5.090;2023-03-26T21:05:22;7.00;99.90
13606;DHT22;6874;52.084;5.090;2023-03-26T21:07:53;6.90;99.90
13606;DHT22;6874;52.084;5.090;2023-03-26T21:10:19;6.90;99.90
13606;DHT22;6874;52.084;5.090;2023-03-26T21:13:10;6.90;99.90
13606;DHT22;6874;52.084;5.090;2023-03-26T21:15:38;6.90;99.90
13606;DHT22;6874;52.084;5.090;2023-03-26T21:18:04;6.90;99.90
13606;DHT22;6874;52.084;5.090;2023-03-26T21:20:30;6.90;99.90
13606;DHT22;6874;52.084;5.090;2023-03-26T21:25:56;6.90;99.90
13606;DHT22;6874;52.084;5.090;2023-03-26T21:28:32;6.90;99.90
13606;DHT22;6874;52.084;5.090;2023-03-26T21:30:59;6.90;99.90
13606;DHT22;6874;52.084;5.090;2023-03-26T21:33:26;6.80;99.90